KBNO/BNO METAR and TAF weather

Enter ICAO airport designator
Station Type Date Time Source
KBNO METAR 2020/07/12 05:53 UTC NOAA

KBNO 120553Z AUTO 00000KT 10SM CLR 21/03 A3012 RMK AO2 SLP155 T02060028 10350 20206 51022


Station Type Date Time Source
KBNO Decoded METAR 2020/07/12 05:53 UTC NOAA

BURNS MUNICIPAL AIRPORT, OR, United States (KBNO) 43-36N 118-57W 1264M
Jul 12, 2020 - 01:53 AM EDT / 2020.07.12 0553 UTC
Wind: Calm:0
Visibility: 10 mile(s):0
Sky conditions: clear
Temperature: 69.1 F (20.6 C)
Dew Point: 37.0 F (2.8 C)
Relative Humidity: 30%
Pressure (altimeter): 30.12 in. Hg (1019 hPa)
Pressure tendency: 0.06 inches (2.2 hPa) higher than three hours ago
ob: KBNO 120553Z AUTO 00000KT 10SM CLR 21/03 A3012 RMK AO2 SLP155 T02060028 10350 20206 51022
cycle: 6

Station Type Date Time Source
KBNO TAF 2020/07/12 06:24 UTC NOAA

TAF KBNO 120520Z 1206/1306 30015KT P6SM SKC
FM121200 VRB05KT P6SM SKC
FM122000 24013KT P6SM SCT250
FM130100 29012KT P6SM SCT200

Example: see airport list